createdAt,value
2022-09-20T00:01:22.299Z,101717.66
2022-09-20T00:03:54.496Z,101722.47
2022-09-20T00:06:23.302Z,101721.56
2022-09-20T00:08:50.114Z,101726.34
2022-09-20T00:11:19.517Z,101721.63
2022-09-20T00:13:47.436Z,101727.63
2022-09-20T00:16:17.930Z,101718.31
2022-09-20T00:18:48.437Z,101721.97
2022-09-20T00:21:20.542Z,101719.06
2022-09-20T00:23:47.017Z,101726.88
2022-09-20T00:26:17.521Z,101724.22
2022-09-20T00:28:44.228Z,101725.59
2022-09-20T00:31:11.365Z,101729.00
2022-09-20T00:33:56.416Z,101731.50
2022-09-20T00:36:22.935Z,101729.00
2022-09-20T00:38:49.432Z,101733.22
2022-09-20T00:41:15.914Z,101738.53
2022-09-20T00:43:46.486Z,101737.63
2022-09-20T00:46:26.632Z,101742.47
2022-09-20T00:48:57.641Z,101737.78
2022-09-20T00:51:35.267Z,101743.34
2022-09-20T00:54:04.566Z,101748.66
2022-09-20T00:56:33.275Z,101737.09
2022-09-20T00:59:08.849Z,101746.41
2022-09-20T01:01:35.511Z,101754.53
2022-09-20T01:04:02.665Z,101752.72
2022-09-20T01:06:29.507Z,101752.03
2022-09-20T01:08:58.348Z,101748.94
2022-09-20T01:11:25.644Z,101747.66
2022-09-20T01:13:52.171Z,101738.22
2022-09-20T01:16:19.060Z,101742.22
2022-09-20T01:18:46.374Z,101742.34
2022-09-20T01:21:13.597Z,101741.16
2022-09-20T01:23:55.002Z,101743.19
2022-09-20T01:26:37.605Z,101737.91
2022-09-20T01:29:23.579Z,101738.91
2022-09-20T01:31:55.252Z,101731.03
2022-09-20T01:34:29.774Z,101741.09
2022-09-20T01:37:07.079Z,101741.66
2022-09-20T01:39:55.749Z,101743.63
2022-09-20T01:42:26.309Z,101745.56
2022-09-20T01:45:28.919Z,101750.00
2022-09-20T01:48:08.154Z,101746.25
2022-09-20T01:50:54.152Z,101740.69
2022-09-20T01:53:56.712Z,101746.94
2022-09-20T01:56:44.351Z,101741.38
2022-09-20T01:59:47.456Z,101747.50
2022-09-20T02:02:47.129Z,101753.50
2022-09-20T02:05:43.004Z,101745.56
2022-09-20T02:08:28.128Z,101746.25
2022-09-20T02:11:00.851Z,101751.13
2022-09-20T02:13:38.478Z,101750.31
2022-09-20T02:16:09.330Z,101751.28
2022-09-20T02:18:56.780Z,101749.31
2022-09-20T02:21:58.284Z,101757.56
2022-09-20T02:24:33.839Z,101757.25
2022-09-20T02:27:08.129Z,101760.91
2022-09-20T02:30:08.929Z,101757.25
2022-09-20T02:32:52.281Z,101759.78
2022-09-20T02:35:26.051Z,101755.75
2022-09-20T02:38:19.290Z,101750.34
2022-09-20T02:41:04.700Z,101746.41
2022-09-20T02:43:49.741Z,101747.50
2022-09-20T02:46:37.903Z,101740.00
2022-09-20T02:49:13.696Z,101750.75
2022-09-20T02:51:50.012Z,101750.47
2022-09-20T02:54:30.685Z,101754.50
2022-09-20T02:57:04.074Z,101757.97
2022-09-20T02:59:45.645Z,101759.63
2022-09-20T03:02:43.893Z,101758.41
2022-09-20T03:05:39.706Z,101758.41
2022-09-20T03:08:47.773Z,101755.75
2022-09-20T03:11:30.858Z,101750.03
2022-09-20T03:14:11.691Z,101755.31
2022-09-20T03:16:56.904Z,101755.16
2022-09-20T03:19:55.766Z,101758.50
2022-09-20T03:22:41.860Z,101771.69
2022-09-20T03:25:32.605Z,101760.56
2022-09-20T03:28:38.227Z,101752.66
2022-09-20T03:31:45.721Z,101760.41
2022-09-20T03:34:23.975Z,101759.19
2022-09-20T03:37:13.702Z,101757.78
2022-09-20T03:39:56.433Z,101767.22
2022-09-20T03:42:27.161Z,101772.50
2022-09-20T03:45:12.312Z,101769.34
2022-09-20T03:48:11.399Z,101769.72
2022-09-20T03:50:54.407Z,101776.97
2022-09-20T03:53:40.668Z,101770.44
2022-09-20T03:56:31.448Z,101781.31
2022-09-20T03:59:23.006Z,101777.56
2022-09-20T04:02:10.305Z,101778.38
2022-09-20T04:04:45.771Z,101777.53
2022-09-20T04:07:18.154Z,101769.84
2022-09-20T04:10:13.745Z,101777.38
2022-09-20T04:12:54.743Z,101773.63
2022-09-20T04:15:51.756Z,101769.72
2022-09-20T04:18:30.736Z,101765.38
2022-09-20T04:21:03.922Z,101771.47
2022-09-20T04:23:54.306Z,101762.59
2022-09-20T04:26:26.043Z,101765.75
2022-09-20T04:29:21.676Z,101765.19
2022-09-20T04:32:07.556Z,101775.34
2022-09-20T04:35:22.841Z,101772.16
2022-09-20T04:37:49.923Z,101780.28
2022-09-20T04:40:34.586Z,101790.28
2022-09-20T04:43:10.091Z,101786.84
2022-09-20T04:45:55.011Z,101788.88
2022-09-20T04:48:32.044Z,101793.03
2022-09-20T04:51:24.678Z,101791.13
2022-09-20T04:54:28.758Z,101794.94
2022-09-20T04:57:24.763Z,101802.03
2022-09-20T05:00:04.442Z,101804.38
2022-09-20T05:02:55.115Z,101800.19
2022-09-20T05:05:49.217Z,101807.13
2022-09-20T05:08:33.931Z,101811.84
2022-09-20T05:11:30.604Z,101811.53
2022-09-20T05:14:01.006Z,101802.41
2022-09-20T05:16:50.741Z,101801.53
2022-09-20T05:19:26.412Z,101819.97
2022-09-20T05:22:26.389Z,101825.75
2022-09-20T05:25:22.210Z,101820.91
2022-09-20T05:28:07.525Z,101824.47
2022-09-20T05:30:54.085Z,101825.75
2022-09-20T05:33:32.197Z,101828.56
2022-09-20T05:36:14.655Z,101824.50
2022-09-20T05:38:56.401Z,101825.91
2022-09-20T05:41:38.813Z,101831.00
2022-09-20T05:44:47.489Z,101825.13
2022-09-20T05:47:20.455Z,101840.91
2022-09-20T05:49:58.895Z,101841.53
2022-09-20T05:52:43.043Z,101839.47
2022-09-20T05:55:28.845Z,101847.47
2022-09-20T05:58:21.263Z,101839.41
2022-09-20T06:01:06.881Z,101839.97
2022-09-20T06:03:54.404Z,101840.19
2022-09-20T06:06:45.270Z,101832.69
2022-09-20T06:09:34.708Z,101830.63
2022-09-20T06:12:46.408Z,101831.91
2022-09-20T06:15:36.656Z,101821.50
2022-09-20T06:18:16.554Z,101810.16
2022-09-20T06:21:01.455Z,101805.56
2022-09-20T06:23:27.980Z,101808.88
2022-09-20T06:26:07.716Z,101829.25
2022-09-20T06:28:38.532Z,101839.97
2022-09-20T06:31:07.763Z,101852.91
2022-09-20T06:33:44.869Z,101863.91
2022-09-20T06:36:34.072Z,101879.09
2022-09-20T06:39:52.618Z,101892.69
2022-09-20T06:42:19.119Z,101881.84
2022-09-20T06:44:45.550Z,101890.34
2022-09-20T06:47:13.792Z,101896.84
2022-09-20T06:49:44.459Z,101911.06
2022-09-20T06:52:14.632Z,101907.22
2022-09-20T06:54:45.578Z,101903.13
2022-09-20T06:57:18.457Z,101900.50
2022-09-20T06:59:45.668Z,101904.66
2022-09-20T07:02:12.270Z,101911.09
2022-09-20T07:04:39.026Z,101913.44
2022-09-20T07:07:09.442Z,101910.09
2022-09-20T07:09:36.235Z,101921.09
2022-09-20T07:12:05.343Z,101912.28
2022-09-20T07:14:32.041Z,101912.66
2022-09-20T07:16:58.553Z,101923.47
2022-09-20T07:19:25.007Z,101920.13
2022-09-20T07:21:51.539Z,101915.16
2022-09-20T07:24:18.014Z,101916.78
2022-09-20T07:27:11.484Z,101919.72
2022-09-20T07:29:37.996Z,101921.91
2022-09-20T07:32:04.463Z,101916.19
2022-09-20T07:34:30.910Z,101920.84
2022-09-20T07:36:59.036Z,101912.09
2022-09-20T07:39:26.052Z,101915.44
2022-09-20T07:41:53.066Z,101915.59
2022-09-20T07:44:24.404Z,101908.94
2022-09-20T07:46:52.684Z,101912.50
2022-09-20T07:49:19.648Z,101911.31
2022-09-20T07:51:46.160Z,101906.44
2022-09-20T07:54:12.710Z,101913.84
2022-09-20T07:56:39.352Z,101913.53
2022-09-20T07:59:06.122Z,101909.25
2022-09-20T08:01:32.772Z,101891.50
2022-09-20T08:03:59.531Z,101915.03
2022-09-20T08:06:26.752Z,101922.28
2022-09-20T08:08:53.262Z,101924.00
2022-09-20T08:11:27.828Z,101919.31
2022-09-20T08:14:11.055Z,101920.41
2022-09-20T08:16:40.020Z,101912.19
2022-09-20T08:19:06.837Z,101892.13
2022-09-20T08:21:34.759Z,101909.34
2022-09-20T08:24:01.472Z,101942.19
2022-09-20T08:26:28.897Z,101931.84
2022-09-20T08:28:57.608Z,101926.25
2022-09-20T08:31:26.669Z,101939.78
2022-09-20T08:33:54.248Z,101940.03
2022-09-20T08:36:23.886Z,101934.03
2022-09-20T08:41:47.400Z,101955.47
2022-09-20T08:44:27.551Z,101961.66
2022-09-20T08:47:22.448Z,101952.63
2022-09-20T08:49:56.936Z,101934.47
2022-09-20T08:52:36.207Z,101963.00
2022-09-20T08:55:16.730Z,101977.16
2022-09-20T08:57:44.584Z,101982.59
2022-09-20T09:00:17.541Z,101942.59
2022-09-20T09:02:44.036Z,101959.84
2022-09-20T09:05:26.476Z,101947.06
2022-09-20T09:07:52.935Z,101960.94
2022-09-20T09:10:19.439Z,101957.78
2022-09-20T09:12:48.853Z,101949.06
2022-09-20T09:15:24.286Z,101984.94
2022-09-20T09:17:50.734Z,101982.50
2022-09-20T09:20:21.672Z,101979.88
2022-09-20T09:22:58.751Z,101990.41
2022-09-20T09:25:39.025Z,101977.34
2022-09-20T09:28:08.454Z,101974.41
2022-09-20T09:30:46.079Z,102003.34
2022-09-20T09:33:28.061Z,101986.00
2022-09-20T09:35:59.435Z,101991.66
2022-09-20T09:38:31.646Z,102010.88
2022-09-20T09:41:29.777Z,101973.91
2022-09-20T09:44:09.851Z,102021.25
2022-09-20T09:46:39.405Z,102009.69
2022-09-20T09:49:13.767Z,102026.38
2022-09-20T09:51:43.075Z,101990.41
2022-09-20T09:54:17.192Z,101994.88
2022-09-20T09:57:20.851Z,101970.66
2022-09-20T10:00:14.502Z,102005.00
2022-09-20T10:03:21.540Z,101998.94
2022-09-20T10:06:19.838Z,102026.44
2022-09-20T10:09:05.531Z,102030.22
2022-09-20T10:12:09.458Z,102014.94
2022-09-20T10:14:46.100Z,102011.16
2022-09-20T10:17:29.440Z,102019.50
2022-09-20T10:20:25.287Z,102016.66
2022-09-20T10:23:30.029Z,102000.19
2022-09-20T10:25:53.502Z,101988.06
2022-09-20T10:28:31.971Z,101991.84
2022-09-20T10:31:16.303Z,101998.06
2022-09-20T10:33:46.403Z,102012.13
2022-09-20T10:36:22.115Z,102015.06
2022-09-20T10:39:01.968Z,102001.09
2022-09-20T10:41:53.909Z,101976.50
2022-09-20T10:44:20.616Z,102011.03
2022-09-20T10:47:02.339Z,101981.47
2022-09-20T10:49:46.080Z,101958.66
2022-09-20T10:52:45.968Z,102004.13
2022-09-20T10:55:33.443Z,101982.75
2022-09-20T10:58:24.599Z,101990.22
2022-09-20T11:01:02.138Z,102029.47
2022-09-20T11:03:50.437Z,102023.34
2022-09-20T11:06:25.979Z,102032.66
2022-09-20T11:08:56.275Z,102021.56
2022-09-20T11:11:26.668Z,101996.09
2022-09-20T11:14:03.843Z,101955.75
2022-09-20T11:16:38.242Z,101982.25
2022-09-20T11:19:26.876Z,102004.59
2022-09-20T11:22:02.087Z,102014.28
2022-09-20T11:24:35.830Z,101970.59
2022-09-20T11:27:15.365Z,101977.47
2022-09-20T11:29:44.701Z,102015.75
2022-09-20T11:32:16.968Z,102025.47
2022-09-20T11:34:56.299Z,101991.03
2022-09-20T11:37:28.274Z,101982.25
2022-09-20T11:39:55.363Z,101977.06
2022-09-20T11:42:28.655Z,101989.72
2022-09-20T11:44:55.378Z,101973.19
2022-09-20T11:47:49.906Z,101946.66
2022-09-20T11:50:11.936Z,101975.81
2022-09-20T11:52:57.605Z,101983.84
2022-09-20T11:55:39.194Z,101977.63
2022-09-20T11:58:11.719Z,101957.16
2022-09-20T12:00:44.096Z,101986.50
2022-09-20T12:03:36.684Z,101983.84
2022-09-20T12:06:05.368Z,101985.19
2022-09-20T12:08:39.242Z,102005.09
2022-09-20T12:11:11.186Z,101978.88
2022-09-20T12:13:40.263Z,101968.31
2022-09-20T12:16:09.696Z,101993.81
2022-09-20T12:18:46.027Z,101940.78
2022-09-20T12:21:17.913Z,101925.88
2022-09-20T12:24:00.592Z,101991.41
2022-09-20T12:26:26.967Z,101907.63
2022-09-20T12:28:58.717Z,101943.41
2022-09-20T12:31:26.144Z,101899.16
2022-09-20T12:34:18.625Z,101903.44
2022-09-20T12:36:54.433Z,101949.19
2022-09-20T12:39:32.285Z,101962.31
2022-09-20T12:42:10.799Z,101989.34
2022-09-20T12:44:49.445Z,101981.59
2022-09-20T12:47:22.647Z,101988.22
2022-09-20T12:50:09.746Z,101981.91
2022-09-20T12:53:04.079Z,101940.59
2022-09-20T12:55:56.201Z,101991.41
2022-09-20T12:58:48.660Z,101952.16
2022-09-20T13:01:15.102Z,101932.66
2022-09-20T13:03:49.871Z,101954.41
2022-09-20T13:06:17.426Z,101961.75
2022-09-20T13:08:48.633Z,101908.56
2022-09-20T13:11:30.417Z,101936.75
2022-09-20T13:14:06.094Z,101961.28
2022-09-20T13:16:52.916Z,101917.53
2022-09-20T13:19:34.624Z,101863.03
2022-09-20T13:22:02.567Z,101895.41
2022-09-20T13:24:35.579Z,101956.19
2022-09-20T13:27:06.545Z,101976.81
2022-09-20T13:29:37.463Z,101938.50
2022-09-20T13:32:24.200Z,101912.94
2022-09-20T13:35:12.341Z,101930.59
2022-09-20T13:37:44.678Z,101930.47
2022-09-20T13:40:19.244Z,101886.72
2022-09-20T13:42:49.741Z,101928.88
2022-09-20T13:45:17.019Z,101923.38
2022-09-20T13:47:44.715Z,101933.66
2022-09-20T13:50:18.693Z,101914.81
2022-09-20T13:52:52.311Z,101920.56
2022-09-20T13:55:21.277Z,101928.19
2022-09-20T13:57:48.328Z,101885.81
2022-09-20T14:00:15.472Z,101886.13
2022-09-20T14:02:42.053Z,101884.91
2022-09-20T14:05:15.986Z,101929.56
2022-09-20T14:07:45.290Z,101933.81
2022-09-20T14:10:50.721Z,101926.03
2022-09-20T14:13:18.306Z,101893.47
2022-09-20T14:15:46.435Z,101941.19
2022-09-20T14:18:22.438Z,101898.69
2022-09-20T14:20:48.967Z,101917.25
2022-09-20T14:23:22.472Z,101900.59
2022-09-20T14:26:05.266Z,101929.63
2022-09-20T14:28:31.734Z,101861.16
2022-09-20T14:31:16.520Z,101883.91
2022-09-20T14:33:46.118Z,101882.22
2022-09-20T14:36:15.422Z,101907.44
2022-09-20T14:38:47.115Z,101875.72
2022-09-20T14:41:13.783Z,101908.44
2022-09-20T14:43:41.025Z,101934.84
2022-09-20T14:46:17.081Z,101944.09
2022-09-20T14:48:45.348Z,101967.00
2022-09-20T14:51:25.422Z,101990.91
2022-09-20T14:54:04.318Z,102005.31
2022-09-20T14:56:36.579Z,102021.09
2022-09-20T14:59:06.737Z,102030.13
2022-09-20T15:01:34.655Z,102041.94
2022-09-20T15:04:07.709Z,102059.09
2022-09-20T15:06:38.905Z,102058.34
2022-09-20T15:09:05.627Z,102075.81
2022-09-20T15:11:33.298Z,102091.44
2022-09-20T15:13:59.788Z,102095.81
2022-09-20T15:16:27.509Z,102124.84
2022-09-20T15:18:54.826Z,102102.47
2022-09-20T15:21:21.743Z,102103.72
2022-09-20T15:23:48.452Z,102126.91
2022-09-20T15:26:15.271Z,102151.56
2022-09-20T15:31:34.560Z,102150.53
2022-09-20T15:34:01.301Z,102164.41
2022-09-20T15:36:32.113Z,102145.75
2022-09-20T15:39:09.850Z,102140.81
2022-09-20T15:41:36.479Z,102126.50
2022-09-20T15:44:04.555Z,102137.88
2022-09-20T15:46:31.959Z,102146.38
2022-09-20T15:49:00.757Z,102133.94
2022-09-20T15:51:28.393Z,102139.94
2022-09-20T15:57:05.281Z,102174.09
2022-09-20T15:59:34.459Z,102169.38
2022-09-20T16:02:01.260Z,102162.50
2022-09-20T16:04:27.977Z,102155.47
2022-09-20T16:06:54.506Z,102133.13
2022-09-20T16:09:21.099Z,102150.72
2022-09-20T16:11:48.240Z,102155.88
2022-09-20T16:14:15.091Z,102163.31
2022-09-20T16:16:47.990Z,102163.09
2022-09-20T16:19:17.419Z,102165.19
2022-09-20T16:25:04.654Z,102183.94
2022-09-20T16:27:34.111Z,102205.81
2022-09-20T16:30:02.220Z,102214.00
2022-09-20T16:32:28.729Z,102216.59
2022-09-20T16:34:55.223Z,102233.44
2022-09-20T16:37:22.791Z,102236.22
2022-09-20T16:39:49.246Z,102240.41
2022-09-20T16:42:16.984Z,102238.06
2022-09-20T16:44:43.441Z,102249.78
2022-09-20T16:47:11.979Z,102244.72
2022-09-20T16:49:38.558Z,102248.53
2022-09-20T16:52:06.164Z,102258.13
2022-09-20T16:54:33.723Z,102260.00
2022-09-20T16:57:02.563Z,102259.47
2022-09-20T16:59:29.067Z,102258.97
2022-09-20T17:01:55.642Z,102263.59
2022-09-20T17:04:24.197Z,102261.19
2022-09-20T17:06:51.414Z,102257.22
2022-09-20T17:09:17.887Z,102260.03
2022-09-20T17:11:46.183Z,102251.44
2022-09-20T17:14:13.428Z,102269.13
2022-09-20T17:16:41.463Z,102267.91
2022-09-20T17:19:12.684Z,102267.97
2022-09-20T17:21:43.295Z,102278.38
2022-09-20T17:24:10.857Z,102278.97
2022-09-20T17:26:40.213Z,102282.75
2022-09-20T17:29:09.773Z,102280.38
2022-09-20T17:31:41.654Z,102277.41
2022-09-20T17:34:10.054Z,102280.84
2022-09-20T17:36:41.755Z,102285.91
2022-09-20T17:39:12.884Z,102279.72
2022-09-20T17:41:41.303Z,102284.97
2022-09-20T17:44:09.836Z,102282.50
2022-09-20T17:46:38.514Z,102293.19
2022-09-20T17:49:08.115Z,102280.75
2022-09-20T17:51:44.648Z,102294.97
2022-09-20T17:54:14.543Z,102297.13
2022-09-20T17:56:43.410Z,102299.66
2022-09-20T17:59:10.991Z,102290.66
2022-09-20T18:01:38.517Z,102294.00
2022-09-20T18:04:06.338Z,102296.81
2022-09-20T18:06:38.656Z,102304.34
2022-09-20T18:09:07.710Z,102308.84
2022-09-20T18:11:40.319Z,102300.66
2022-09-20T18:14:08.286Z,102307.19
2022-09-20T18:16:35.098Z,102303.69
2022-09-20T18:19:01.967Z,102306.31
2022-09-20T18:21:29.599Z,102302.53
2022-09-20T18:23:57.107Z,102308.34
2022-09-20T18:26:25.770Z,102299.00
2022-09-20T18:29:00.167Z,102304.19
2022-09-20T18:31:32.119Z,102307.81
2022-09-20T18:34:02.449Z,102304.97
2022-09-20T18:36:30.275Z,102320.00
2022-09-20T18:38:58.084Z,102313.44
2022-09-20T18:41:26.593Z,102316.44
2022-09-20T18:43:54.558Z,102317.59
2022-09-20T18:46:24.746Z,102321.59
2022-09-20T18:49:05.408Z,102316.06
2022-09-20T18:51:35.820Z,102314.03
2022-09-20T18:54:05.468Z,102321.66
2022-09-20T18:56:34.535Z,102323.63
2022-09-20T18:59:04.034Z,102325.34
2022-09-20T19:01:55.568Z,102322.69
2022-09-20T19:04:46.878Z,102325.66
2022-09-20T19:07:41.335Z,102320.97
2022-09-20T19:10:37.355Z,102327.75
2022-09-20T19:13:42.028Z,102327.97
2022-09-20T19:16:20.448Z,102333.91
2022-09-20T19:19:06.230Z,102337.69
2022-09-20T19:21:58.766Z,102344.97
2022-09-20T19:24:50.783Z,102334.56
2022-09-20T19:27:17.304Z,102342.88
2022-09-20T19:29:44.000Z,102338.38
2022-09-20T19:32:17.291Z,102339.00
2022-09-20T19:34:44.482Z,102340.41
2022-09-20T19:37:26.163Z,102345.47
2022-09-20T19:40:32.841Z,102340.56
2022-09-20T19:43:24.030Z,102344.75
2022-09-20T19:46:20.451Z,102350.28
2022-09-20T19:48:54.989Z,102347.63
2022-09-20T19:51:22.322Z,102351.94
2022-09-20T19:53:49.880Z,102353.34
2022-09-20T19:56:27.607Z,102351.19
2022-09-20T19:58:55.976Z,102353.47
2022-09-20T20:01:23.819Z,102357.72
2022-09-20T20:03:51.207Z,102357.03
2022-09-20T20:06:33.334Z,102354.38
2022-09-20T20:09:08.975Z,102365.25
2022-09-20T20:11:56.406Z,102360.16
2022-09-20T20:14:51.618Z,102368.88
2022-09-20T20:17:46.154Z,102372.53
2022-09-20T20:20:54.152Z,102374.44
2022-09-20T20:23:27.856Z,102369.69
2022-09-20T20:26:02.872Z,102373.44
2022-09-20T20:28:30.158Z,102377.22
2022-09-20T20:31:00.140Z,102368.47
2022-09-20T20:33:28.958Z,102365.81
2022-09-20T20:35:56.952Z,102370.84
2022-09-20T20:38:26.399Z,102375.06
2022-09-20T20:41:05.117Z,102369.38
2022-09-20T20:43:36.326Z,102364.91
2022-09-20T20:46:04.157Z,102369.13
2022-09-20T20:48:30.751Z,102374.47
2022-09-20T20:51:01.855Z,102369.72
2022-09-20T20:53:36.252Z,102371.91
2022-09-20T20:56:07.089Z,102361.72
2022-09-20T20:58:34.827Z,102373.47
2022-09-20T21:01:21.647Z,102372.69
2022-09-20T21:03:50.002Z,102378.34
2022-09-20T21:06:17.094Z,102379.50
2022-09-20T21:08:48.992Z,102385.78
2022-09-20T21:11:18.604Z,102391.16
2022-09-20T21:13:46.990Z,102394.97
2022-09-20T21:16:15.830Z,102391.19
2022-09-20T21:18:43.515Z,102382.56
2022-09-20T21:21:24.770Z,102385.31
2022-09-20T21:23:53.059Z,102387.03
2022-09-20T21:26:20.584Z,102386.31
2022-09-20T21:28:52.109Z,102387.06
2022-09-20T21:31:20.657Z,102398.13
2022-09-20T21:33:47.300Z,102394.25
2022-09-20T21:36:15.975Z,102399.84
2022-09-20T21:38:43.814Z,102400.09
2022-09-20T21:41:14.382Z,102399.84
2022-09-20T21:43:42.761Z,102401.78
2022-09-20T21:46:19.726Z,102399.41
2022-09-20T21:48:47.549Z,102400.09
2022-09-20T21:51:16.753Z,102402.34
2022-09-20T21:53:43.314Z,102397.03
2022-09-20T21:56:11.939Z,102404.00
2022-09-20T21:58:41.215Z,102406.06
2022-09-20T22:01:11.472Z,102401.34
2022-09-20T22:03:39.127Z,102410.38
2022-09-20T22:06:11.446Z,102412.78
2022-09-20T22:08:39.781Z,102407.91
2022-09-20T22:11:10.220Z,102410.38
2022-09-20T22:13:40.128Z,102413.16
2022-09-20T22:16:09.535Z,102418.09
2022-09-20T22:18:38.244Z,102412.03
2022-09-20T22:21:08.073Z,102416.91
2022-09-20T22:23:35.134Z,102414.53
2022-09-20T22:26:13.194Z,102411.81
2022-09-20T22:28:40.491Z,102418.00
2022-09-20T22:31:14.986Z,102420.25
2022-09-20T22:33:43.259Z,102419.00
2022-09-20T22:36:11.023Z,102415.72
2022-09-20T22:38:37.490Z,102420.50
2022-09-20T22:41:03.964Z,102430.47
2022-09-20T22:43:32.565Z,102429.34
2022-09-20T22:46:04.520Z,102433.47
2022-09-20T22:48:32.088Z,102437.97
2022-09-20T22:51:18.425Z,102437.06
2022-09-20T22:53:45.450Z,102436.88
2022-09-20T22:56:19.203Z,102425.91
2022-09-20T22:58:47.826Z,102429.72
2022-09-20T23:01:25.547Z,102429.50
2022-09-20T23:03:56.700Z,102433.19
2022-09-20T23:06:29.146Z,102426.16
2022-09-20T23:08:57.494Z,102442.19
2022-09-20T23:11:24.389Z,102440.81
2022-09-20T23:13:56.133Z,102445.50
2022-09-20T23:16:25.181Z,102432.56
2022-09-20T23:18:53.052Z,102439.22
2022-09-20T23:21:19.899Z,102446.94
2022-09-20T23:23:48.013Z,102434.28
2022-09-20T23:26:18.496Z,102444.81
2022-09-20T23:28:46.876Z,102439.72
2022-09-20T23:31:17.279Z,102444.69
2022-09-20T23:33:51.515Z,102447.97
2022-09-20T23:36:19.063Z,102433.34
2022-09-20T23:38:45.979Z,102439.50
2022-09-20T23:41:13.972Z,102436.72
2022-09-20T23:43:41.363Z,102438.38
2022-09-20T23:46:09.555Z,102439.75
2022-09-20T23:48:36.323Z,102444.53
2022-09-20T23:51:04.075Z,102446.47
2022-09-20T23:53:30.535Z,102447.69
2022-09-20T23:55:56.973Z,102456.44
2022-09-20T23:58:23.510Z,102451.78
